sensor_id;sensor_type;location;lat;lon;timestamp;pressure;altitude;pressure_sealevel;temperature
64175;BMP280;50469;50.438;-119.202;2023-07-29T00:02:10;97018.34;;;31.68
64175;BMP280;50469;50.438;-119.202;2023-07-29T00:04:40;97018.38;;;32.08
64175;BMP280;50469;50.438;-119.202;2023-07-29T00:07:11;97015.59;;;31.60
64175;BMP280;50469;50.438;-119.202;2023-07-29T00:09:39;97025.00;;;31.04
64175;BMP280;50469;50.438;-119.202;2023-07-29T00:12:10;97018.56;;;31.16
64175;BMP280;50469;50.438;-119.202;2023-07-29T00:14:38;97010.78;;;31.23
64175;BMP280;50469;50.438;-119.202;2023-07-29T00:17:06;97017.81;;;31.16
64175;BMP280;50469;50.438;-119.202;2023-07-29T00:19:35;97022.06;;;31.25
64175;BMP280;50469;50.438;-119.202;2023-07-29T00:22:03;97021.69;;;30.98
64175;BMP280;50469;50.438;-119.202;2023-07-29T00:24:32;97014.09;;;30.83
64175;BMP280;50469;50.438;-119.202;2023-07-29T00:27:00;97021.28;;;30.78
64175;BMP280;50469;50.438;-119.202;2023-07-29T00:29:28;97018.50;;;30.78
64175;BMP280;50469;50.438;-119.202;2023-07-29T00:31:56;97017.22;;;30.87
64175;BMP280;50469;50.438;-119.202;2023-07-29T00:34:24;97014.75;;;30.45
64175;BMP280;50469;50.438;-119.202;2023-07-29T00:36:55;97014.00;;;30.52
64175;BMP280;50469;50.438;-119.202;2023-07-29T00:39:23;97016.25;;;30.54
64175;BMP280;50469;50.438;-119.202;2023-07-29T00:41:51;97008.88;;;30.56
64175;BMP280;50469;50.438;-119.202;2023-07-29T00:44:19;97012.16;;;30.47
64175;BMP280;50469;50.438;-119.202;2023-07-29T00:46:47;97013.09;;;30.50
64175;BMP280;50469;50.438;-119.202;2023-07-29T00:49:19;97010.31;;;30.42
64175;BMP280;50469;50.438;-119.202;2023-07-29T00:51:47;97016.16;;;30.39
64175;BMP280;50469;50.438;-119.202;2023-07-29T00:54:18;97008.88;;;30.64
64175;BMP280;50469;50.438;-119.202;2023-07-29T00:56:46;97008.84;;;30.49
64175;BMP280;50469;50.438;-119.202;2023-07-29T00:59:18;97013.47;;;30.54
64175;BMP280;50469;50.438;-119.202;2023-07-29T01:01:48;97000.00;;;30.50
64175;BMP280;50469;50.438;-119.202;2023-07-29T01:04:16;97003.69;;;30.45
64175;BMP280;50469;50.438;-119.202;2023-07-29T01:12:18;97009.53;;;30.34
64175;BMP280;50469;50.438;-119.202;2023-07-29T01:17:28;97002.59;;;30.56
64175;BMP280;50469;50.438;-119.202;2023-07-29T01:20:15;97006.44;;;30.53
64175;BMP280;50469;50.438;-119.202;2023-07-29T01:22:46;97010.72;;;30.54
64175;BMP280;50469;50.438;-119.202;2023-07-29T01:25:17;97011.19;;;30.37
64175;BMP280;50469;50.438;-119.202;2023-07-29T01:27:47;97010.47;;;30.36
64175;BMP280;50469;50.438;-119.202;2023-07-29T01:30:16;97012.75;;;30.53
64175;BMP280;50469;50.438;-119.202;2023-07-29T01:35:36;97006.88;;;30.21
64175;BMP280;50469;50.438;-119.202;2023-07-29T01:38:17;97016.66;;;30.22
64175;BMP280;50469;50.438;-119.202;2023-07-29T01:40:46;97007.22;;;30.17
64175;BMP280;50469;50.438;-119.202;2023-07-29T01:43:15;97006.69;;;30.11
64175;BMP280;50469;50.438;-119.202;2023-07-29T01:45:44;97011.09;;;30.14
64175;BMP280;50469;50.438;-119.202;2023-07-29T01:48:12;97004.28;;;30.15
64175;BMP280;50469;50.438;-119.202;2023-07-29T01:50:40;97003.53;;;30.07
64175;BMP280;50469;50.438;-119.202;2023-07-29T01:53:08;97015.16;;;29.85
64175;BMP280;50469;50.438;-119.202;2023-07-29T01:55:40;97007.50;;;29.91
64175;BMP280;50469;50.438;-119.202;2023-07-29T01:58:08;97007.00;;;29.71
64175;BMP280;50469;50.438;-119.202;2023-07-29T02:00:36;97010.31;;;29.70
64175;BMP280;50469;50.438;-119.202;2023-07-29T02:03:04;97008.06;;;29.68
64175;BMP280;50469;50.438;-119.202;2023-07-29T02:05:35;97009.50;;;29.62
64175;BMP280;50469;50.438;-119.202;2023-07-29T02:08:08;97009.03;;;29.50
64175;BMP280;50469;50.438;-119.202;2023-07-29T02:10:37;97008.31;;;29.49
64175;BMP280;50469;50.438;-119.202;2023-07-29T02:13:05;97013.38;;;29.38
64175;BMP280;50469;50.438;-119.202;2023-07-29T02:15:36;97009.59;;;29.27
64175;BMP280;50469;50.438;-119.202;2023-07-29T02:18:04;97009.19;;;29.23
64175;BMP280;50469;50.438;-119.202;2023-07-29T02:20:32;97011.16;;;29.15
64175;BMP280;50469;50.438;-119.202;2023-07-29T02:23:00;97003.06;;;29.17
64175;BMP280;50469;50.438;-119.202;2023-07-29T02:25:28;97006.81;;;29.07
64175;BMP280;50469;50.438;-119.202;2023-07-29T02:28:02;97008.34;;;29.08
64175;BMP280;50469;50.438;-119.202;2023-07-29T02:30:30;97020.53;;;28.99
64175;BMP280;50469;50.438;-119.202;2023-07-29T02:32:58;97019.78;;;28.77
64175;BMP280;50469;50.438;-119.202;2023-07-29T02:35:26;97027.78;;;28.55
64175;BMP280;50469;50.438;-119.202;2023-07-29T02:37:54;97025.47;;;28.32
64175;BMP280;50469;50.438;-119.202;2023-07-29T02:40:25;97029.81;;;28.14
64175;BMP280;50469;50.438;-119.202;2023-07-29T02:42:53;97032.25;;;28.05
64175;BMP280;50469;50.438;-119.202;2023-07-29T02:45:21;97038.41;;;27.97
64175;BMP280;50469;50.438;-119.202;2023-07-29T02:47:49;97035.31;;;27.75
64175;BMP280;50469;50.438;-119.202;2023-07-29T02:50:17;97041.41;;;27.67
64175;BMP280;50469;50.438;-119.202;2023-07-29T02:52:45;97038.41;;;27.84
64175;BMP280;50469;50.438;-119.202;2023-07-29T02:55:17;97052.22;;;27.65
64175;BMP280;50469;50.438;-119.202;2023-07-29T02:57:45;97041.13;;;27.71
64175;BMP280;50469;50.438;-119.202;2023-07-29T03:00:13;97045.34;;;27.72
64175;BMP280;50469;50.438;-119.202;2023-07-29T03:02:44;97052.53;;;27.62
64175;BMP280;50469;50.438;-119.202;2023-07-29T03:05:12;97049.34;;;27.58
64175;BMP280;50469;50.438;-119.202;2023-07-29T03:07:43;97042.03;;;27.60
64175;BMP280;50469;50.438;-119.202;2023-07-29T03:10:11;97051.56;;;27.59
64175;BMP280;50469;50.438;-119.202;2023-07-29T03:12:39;97047.31;;;27.58
64175;BMP280;50469;50.438;-119.202;2023-07-29T03:15:08;97046.97;;;27.49
64175;BMP280;50469;50.438;-119.202;2023-07-29T03:17:36;97049.34;;;27.58
64175;BMP280;50469;50.438;-119.202;2023-07-29T03:20:07;97056.28;;;27.45
64175;BMP280;50469;50.438;-119.202;2023-07-29T03:22:38;97055.84;;;27.41
64175;BMP280;50469;50.438;-119.202;2023-07-29T03:25:06;97056.66;;;27.36
64175;BMP280;50469;50.438;-119.202;2023-07-29T03:27:34;97056.31;;;27.27
64175;BMP280;50469;50.438;-119.202;2023-07-29T03:30:04;97060.56;;;27.28
64175;BMP280;50469;50.438;-119.202;2023-07-29T03:32:32;97058.13;;;27.05
64175;BMP280;50469;50.438;-119.202;2023-07-29T03:35:03;97055.59;;;27.07
64175;BMP280;50469;50.438;-119.202;2023-07-29T03:37:31;97057.81;;;26.90
64175;BMP280;50469;50.438;-119.202;2023-07-29T03:39:59;97056.97;;;26.76
64175;BMP280;50469;50.438;-119.202;2023-07-29T03:42:33;97060.09;;;26.67
64175;BMP280;50469;50.438;-119.202;2023-07-29T03:45:01;97068.13;;;26.65
64175;BMP280;50469;50.438;-119.202;2023-07-29T03:47:30;97061.28;;;26.53
64175;BMP280;50469;50.438;-119.202;2023-07-29T03:50:02;97066.78;;;26.53
64175;BMP280;50469;50.438;-119.202;2023-07-29T03:52:30;97073.34;;;26.44
64175;BMP280;50469;50.438;-119.202;2023-07-29T03:54:58;97071.59;;;26.16
64175;BMP280;50469;50.438;-119.202;2023-07-29T03:57:29;97073.84;;;25.94
64175;BMP280;50469;50.438;-119.202;2023-07-29T03:59:57;97069.47;;;25.79
64175;BMP280;50469;50.438;-119.202;2023-07-29T04:02:25;97075.25;;;25.76
64175;BMP280;50469;50.438;-119.202;2023-07-29T04:04:53;97079.09;;;25.61
64175;BMP280;50469;50.438;-119.202;2023-07-29T04:07:23;97092.09;;;25.50
64175;BMP280;50469;50.438;-119.202;2023-07-29T04:09:55;97095.44;;;25.37
64175;BMP280;50469;50.438;-119.202;2023-07-29T04:12:23;97084.50;;;25.37
64175;BMP280;50469;50.438;-119.202;2023-07-29T04:14:54;97097.09;;;25.10
64175;BMP280;50469;50.438;-119.202;2023-07-29T04:17:24;97095.31;;;25.12
64175;BMP280;50469;50.438;-119.202;2023-07-29T04:19:55;97096.28;;;25.21
64175;BMP280;50469;50.438;-119.202;2023-07-29T04:22:23;97105.53;;;25.12
64175;BMP280;50469;50.438;-119.202;2023-07-29T04:24:54;97103.53;;;25.12
64175;BMP280;50469;50.438;-119.202;2023-07-29T04:27:25;97103.81;;;25.03
64175;BMP280;50469;50.438;-119.202;2023-07-29T04:29:53;97101.38;;;25.00
64175;BMP280;50469;50.438;-119.202;2023-07-29T04:32:23;97102.63;;;24.93
64175;BMP280;50469;50.438;-119.202;2023-07-29T04:34:57;97106.19;;;24.66
64175;BMP280;50469;50.438;-119.202;2023-07-29T04:37:24;97106.66;;;24.81
64175;BMP280;50469;50.438;-119.202;2023-07-29T04:39:53;97107.81;;;25.02
64175;BMP280;50469;50.438;-119.202;2023-07-29T04:42:21;97113.00;;;25.11
64175;BMP280;50469;50.438;-119.202;2023-07-29T04:44:51;97116.00;;;25.13
64175;BMP280;50469;50.438;-119.202;2023-07-29T04:47:21;97124.06;;;24.83
64175;BMP280;50469;50.438;-119.202;2023-07-29T04:49:50;97118.97;;;25.16
64175;BMP280;50469;50.438;-119.202;2023-07-29T04:52:22;97123.56;;;24.96
64175;BMP280;50469;50.438;-119.202;2023-07-29T04:54:50;97119.56;;;24.86
64175;BMP280;50469;50.438;-119.202;2023-07-29T04:57:21;97119.66;;;24.58
64175;BMP280;50469;50.438;-119.202;2023-07-29T04:59:50;97123.34;;;24.66
64175;BMP280;50469;50.438;-119.202;2023-07-29T05:02:18;97117.47;;;24.28
64175;BMP280;50469;50.438;-119.202;2023-07-29T05:04:46;97115.94;;;23.94
64175;BMP280;50469;50.438;-119.202;2023-07-29T05:07:15;97123.44;;;23.99
64175;BMP280;50469;50.438;-119.202;2023-07-29T05:09:43;97114.22;;;23.85
64175;BMP280;50469;50.438;-119.202;2023-07-29T05:12:11;97115.97;;;23.99
64175;BMP280;50469;50.438;-119.202;2023-07-29T05:14:39;97124.59;;;23.64
64175;BMP280;50469;50.438;-119.202;2023-07-29T05:17:07;97118.63;;;23.54
64175;BMP280;50469;50.438;-119.202;2023-07-29T05:19:37;97123.41;;;23.59
64175;BMP280;50469;50.438;-119.202;2023-07-29T05:22:06;97126.97;;;23.23
64175;BMP280;50469;50.438;-119.202;2023-07-29T05:24:34;97121.22;;;23.15
64175;BMP280;50469;50.438;-119.202;2023-07-29T05:27:02;97120.03;;;23.27
64175;BMP280;50469;50.438;-119.202;2023-07-29T05:29:30;97111.91;;;23.50
64175;BMP280;50469;50.438;-119.202;2023-07-29T05:31:58;97121.53;;;23.34
64175;BMP280;50469;50.438;-119.202;2023-07-29T05:34:26;97123.84;;;22.93
64175;BMP280;50469;50.438;-119.202;2023-07-29T05:36:54;97125.25;;;22.77
64175;BMP280;50469;50.438;-119.202;2023-07-29T05:39:22;97113.78;;;22.67
64175;BMP280;50469;50.438;-119.202;2023-07-29T05:41:53;97113.31;;;22.69
64175;BMP280;50469;50.438;-119.202;2023-07-29T05:44:21;97114.78;;;22.70
64175;BMP280;50469;50.438;-119.202;2023-07-29T05:46:49;97110.69;;;22.54
64175;BMP280;50469;50.438;-119.202;2023-07-29T05:49:20;97123.66;;;22.59
64175;BMP280;50469;50.438;-119.202;2023-07-29T05:51:51;97118.38;;;22.50
64175;BMP280;50469;50.438;-119.202;2023-07-29T05:54:20;97121.44;;;22.26
64175;BMP280;50469;50.438;-119.202;2023-07-29T05:56:53;97131.09;;;22.21
64175;BMP280;50469;50.438;-119.202;2023-07-29T05:59:21;97127.75;;;22.11
64175;BMP280;50469;50.438;-119.202;2023-07-29T06:01:49;97128.97;;;22.10
64175;BMP280;50469;50.438;-119.202;2023-07-29T06:04:17;97125.25;;;22.08
64175;BMP280;50469;50.438;-119.202;2023-07-29T06:06:45;97133.34;;;22.02
64175;BMP280;50469;50.438;-119.202;2023-07-29T06:09:19;97132.38;;;22.00
64175;BMP280;50469;50.438;-119.202;2023-07-29T06:11:47;97134.56;;;21.96
64175;BMP280;50469;50.438;-119.202;2023-07-29T06:14:15;97130.75;;;21.87
64175;BMP280;50469;50.438;-119.202;2023-07-29T06:16:43;97137.84;;;21.79
64175;BMP280;50469;50.438;-119.202;2023-07-29T06:19:11;97137.41;;;21.60
64175;BMP280;50469;50.438;-119.202;2023-07-29T06:21:39;97127.69;;;21.33
64175;BMP280;50469;50.438;-119.202;2023-07-29T06:24:07;97135.34;;;21.29
64175;BMP280;50469;50.438;-119.202;2023-07-29T06:26:37;97140.69;;;21.24
64175;BMP280;50469;50.438;-119.202;2023-07-29T06:29:08;97144.63;;;21.23
64175;BMP280;50469;50.438;-119.202;2023-07-29T06:31:36;97144.41;;;20.71
64175;BMP280;50469;50.438;-119.202;2023-07-29T06:34:04;97148.16;;;20.58
64175;BMP280;50469;50.438;-119.202;2023-07-29T06:36:32;97151.59;;;20.59
64175;BMP280;50469;50.438;-119.202;2023-07-29T06:39:03;97142.06;;;20.49
64175;BMP280;50469;50.438;-119.202;2023-07-29T06:41:31;97147.94;;;20.91
64175;BMP280;50469;50.438;-119.202;2023-07-29T06:43:59;97138.91;;;20.85
64175;BMP280;50469;50.438;-119.202;2023-07-29T06:46:27;97141.28;;;20.63
64175;BMP280;50469;50.438;-119.202;2023-07-29T06:48:55;97135.66;;;21.02
64175;BMP280;50469;50.438;-119.202;2023-07-29T06:51:23;97138.88;;;20.65
64175;BMP280;50469;50.438;-119.202;2023-07-29T06:53:54;97142.91;;;20.55
64175;BMP280;50469;50.438;-119.202;2023-07-29T06:56:25;97145.47;;;20.43
64175;BMP280;50469;50.438;-119.202;2023-07-29T06:58:53;97142.66;;;20.23
64175;BMP280;50469;50.438;-119.202;2023-07-29T07:01:24;97153.13;;;20.15
64175;BMP280;50469;50.438;-119.202;2023-07-29T07:03:55;97148.44;;;20.16
64175;BMP280;50469;50.438;-119.202;2023-07-29T07:06:26;97157.16;;;20.05
64175;BMP280;50469;50.438;-119.202;2023-07-29T07:08:54;97158.84;;;20.03
64175;BMP280;50469;50.438;-119.202;2023-07-29T07:11:25;97161.72;;;19.84
64175;BMP280;50469;50.438;-119.202;2023-07-29T07:13:55;97161.41;;;19.82
64175;BMP280;50469;50.438;-119.202;2023-07-29T07:16:23;97164.44;;;19.84
64175;BMP280;50469;50.438;-119.202;2023-07-29T07:18:51;97163.00;;;19.50
64175;BMP280;50469;50.438;-119.202;2023-07-29T07:21:20;97162.09;;;19.53
64175;BMP280;50469;50.438;-119.202;2023-07-29T07:23:50;97163.84;;;19.32
64175;BMP280;50469;50.438;-119.202;2023-07-29T07:26:20;97152.72;;;19.30
64175;BMP280;50469;50.438;-119.202;2023-07-29T07:28:51;97165.63;;;19.35
64175;BMP280;50469;50.438;-119.202;2023-07-29T07:31:19;97161.78;;;19.51
64175;BMP280;50469;50.438;-119.202;2023-07-29T07:33:47;97163.88;;;19.56
64175;BMP280;50469;50.438;-119.202;2023-07-29T07:36:15;97165.41;;;19.24
64175;BMP280;50469;50.438;-119.202;2023-07-29T07:38:43;97160.69;;;19.00
64175;BMP280;50469;50.438;-119.202;2023-07-29T07:41:11;97164.78;;;18.96
64175;BMP280;50469;50.438;-119.202;2023-07-29T07:43:39;97168.81;;;19.00
64175;BMP280;50469;50.438;-119.202;2023-07-29T07:46:07;97162.19;;;19.35
64175;BMP280;50469;50.438;-119.202;2023-07-29T07:48:36;97163.88;;;19.56
64175;BMP280;50469;50.438;-119.202;2023-07-29T07:51:13;97167.00;;;19.40
64175;BMP280;50469;50.438;-119.202;2023-07-29T07:53:45;97163.56;;;19.54
64175;BMP280;50469;50.438;-119.202;2023-07-29T07:56:13;97161.06;;;18.93
64175;BMP280;50469;50.438;-119.202;2023-07-29T07:58:41;97167.22;;;18.94
64175;BMP280;50469;50.438;-119.202;2023-07-29T08:01:09;97167.38;;;18.81
64175;BMP280;50469;50.438;-119.202;2023-07-29T08:03:37;97158.84;;;18.73
64175;BMP280;50469;50.438;-119.202;2023-07-29T08:06:05;97166.28;;;18.97
64175;BMP280;50469;50.438;-119.202;2023-07-29T08:08:36;97163.78;;;19.17
64175;BMP280;50469;50.438;-119.202;2023-07-29T08:11:05;97163.63;;;18.88
64175;BMP280;50469;50.438;-119.202;2023-07-29T08:13:33;97172.78;;;18.90
64175;BMP280;50469;50.438;-119.202;2023-07-29T08:16:01;97174.56;;;18.51
64175;BMP280;50469;50.438;-119.202;2023-07-29T08:18:32;97169.41;;;18.62
64175;BMP280;50469;50.438;-119.202;2023-07-29T08:21:00;97167.31;;;18.48
64175;BMP280;50469;50.438;-119.202;2023-07-29T08:23:34;97176.84;;;18.34
64175;BMP280;50469;50.438;-119.202;2023-07-29T08:26:06;97169.41;;;18.62
64175;BMP280;50469;50.438;-119.202;2023-07-29T08:28:39;97171.22;;;18.65
64175;BMP280;50469;50.438;-119.202;2023-07-29T08:31:12;97171.06;;;18.69
64175;BMP280;50469;50.438;-119.202;2023-07-29T08:33:40;97174.25;;;18.58
64175;BMP280;50469;50.438;-119.202;2023-07-29T08:36:11;97179.22;;;18.60
64175;BMP280;50469;50.438;-119.202;2023-07-29T08:38:39;97177.13;;;18.36
64175;BMP280;50469;50.438;-119.202;2023-07-29T08:41:30;97174.13;;;18.43
64175;BMP280;50469;50.438;-119.202;2023-07-29T08:44:23;97180.22;;;18.71
64175;BMP280;50469;50.438;-119.202;2023-07-29T08:46:51;97172.06;;;18.81
64175;BMP280;50469;50.438;-119.202;2023-07-29T08:49:20;97178.28;;;18.63
64175;BMP280;50469;50.438;-119.202;2023-07-29T08:51:52;97170.97;;;18.45
64175;BMP280;50469;50.438;-119.202;2023-07-29T08:54:21;97168.69;;;18.52
64175;BMP280;50469;50.438;-119.202;2023-07-29T08:56:50;97180.44;;;18.40
64175;BMP280;50469;50.438;-119.202;2023-07-29T08:59:23;97175.16;;;18.46
64175;BMP280;50469;50.438;-119.202;2023-07-29T09:01:53;97179.69;;;17.75
64175;BMP280;50469;50.438;-119.202;2023-07-29T09:04:21;97187.63;;;17.70
64175;BMP280;50469;50.438;-119.202;2023-07-29T09:06:50;97188.69;;;17.63
64175;BMP280;50469;50.438;-119.202;2023-07-29T09:09:19;97183.88;;;17.49
64175;BMP280;50469;50.438;-119.202;2023-07-29T09:11:47;97186.56;;;17.49
64175;BMP280;50469;50.438;-119.202;2023-07-29T09:14:15;97186.84;;;17.42
64175;BMP280;50469;50.438;-119.202;2023-07-29T09:16:43;97186.97;;;17.38
64175;BMP280;50469;50.438;-119.202;2023-07-29T09:19:12;97183.16;;;17.26
64175;BMP280;50469;50.438;-119.202;2023-07-29T09:21:40;97187.38;;;17.18
64175;BMP280;50469;50.438;-119.202;2023-07-29T09:24:08;97191.66;;;17.06
64175;BMP280;50469;50.438;-119.202;2023-07-29T09:26:41;97194.94;;;17.01
64175;BMP280;50469;50.438;-119.202;2023-07-29T09:29:16;97194.00;;;16.95
64175;BMP280;50469;50.438;-119.202;2023-07-29T09:31:54;97194.19;;;17.01
64175;BMP280;50469;50.438;-119.202;2023-07-29T09:34:24;97191.72;;;16.94
64175;BMP280;50469;50.438;-119.202;2023-07-29T09:36:52;97192.81;;;16.96
64175;BMP280;50469;50.438;-119.202;2023-07-29T09:39:23;97186.97;;;16.98
64175;BMP280;50469;50.438;-119.202;2023-07-29T09:41:51;97188.78;;;17.01
64175;BMP280;50469;50.438;-119.202;2023-07-29T09:44:19;97193.06;;;16.89
64175;BMP280;50469;50.438;-119.202;2023-07-29T09:46:50;97189.31;;;16.86
64175;BMP280;50469;50.438;-119.202;2023-07-29T09:49:18;97193.44;;;17.00
64175;BMP280;50469;50.438;-119.202;2023-07-29T09:51:46;97200.16;;;16.96
64175;BMP280;50469;50.438;-119.202;2023-07-29T09:54:14;97195.22;;;16.94
64175;BMP280;50469;50.438;-119.202;2023-07-29T09:56:42;97189.81;;;16.94
64175;BMP280;50469;50.438;-119.202;2023-07-29T09:59:11;97194.13;;;16.92
64175;BMP280;50469;50.438;-119.202;2023-07-29T10:01:41;97196.97;;;16.88
64175;BMP280;50469;50.438;-119.202;2023-07-29T10:04:11;97191.97;;;16.77
64175;BMP280;50469;50.438;-119.202;2023-07-29T10:06:41;97196.09;;;16.47
64175;BMP280;50469;50.438;-119.202;2023-07-29T10:09:11;97201.66;;;16.43
64175;BMP280;50469;50.438;-119.202;2023-07-29T10:11:40;97198.69;;;16.51
64175;BMP280;50469;50.438;-119.202;2023-07-29T10:14:09;97202.59;;;16.28
64175;BMP280;50469;50.438;-119.202;2023-07-29T10:16:39;97205.78;;;16.35
64175;BMP280;50469;50.438;-119.202;2023-07-29T10:19:09;97205.72;;;16.48
64175;BMP280;50469;50.438;-119.202;2023-07-29T10:21:45;97195.63;;;16.39
64175;BMP280;50469;50.438;-119.202;2023-07-29T10:24:19;97196.47;;;16.36
64175;BMP280;50469;50.438;-119.202;2023-07-29T10:26:49;97198.56;;;16.19
64175;BMP280;50469;50.438;-119.202;2023-07-29T10:29:19;97196.44;;;16.14
64175;BMP280;50469;50.438;-119.202;2023-07-29T10:31:48;97194.41;;;16.18
64175;BMP280;50469;50.438;-119.202;2023-07-29T10:34:21;97190.53;;;16.07
64175;BMP280;50469;50.438;-119.202;2023-07-29T10:36:49;97186.75;;;16.04
64175;BMP280;50469;50.438;-119.202;2023-07-29T10:39:18;97184.63;;;15.99
64175;BMP280;50469;50.438;-119.202;2023-07-29T10:41:59;97189.50;;;15.91
64175;BMP280;50469;50.438;-119.202;2023-07-29T10:49:48;97185.28;;;15.90
64175;BMP280;50469;50.438;-119.202;2023-07-29T10:52:40;97185.78;;;15.98
64175;BMP280;50469;50.438;-119.202;2023-07-29T10:55:25;97186.38;;;15.80
64175;BMP280;50469;50.438;-119.202;2023-07-29T10:58:08;97189.66;;;15.75
64175;BMP280;50469;50.438;-119.202;2023-07-29T11:00:37;97191.13;;;15.76
64175;BMP280;50469;50.438;-119.202;2023-07-29T11:03:10;97195.47;;;15.61
64175;BMP280;50469;50.438;-119.202;2023-07-29T11:05:46;97190.63;;;15.43
64175;BMP280;50469;50.438;-119.202;2023-07-29T11:08:27;97190.63;;;15.43
64175;BMP280;50469;50.438;-119.202;2023-07-29T11:11:05;97197.09;;;15.33
64175;BMP280;50469;50.438;-119.202;2023-07-29T11:13:35;97193.09;;;15.37
64175;BMP280;50469;50.438;-119.202;2023-07-29T11:16:06;97196.78;;;15.31
64175;BMP280;50469;50.438;-119.202;2023-07-29T11:18:36;97193.34;;;15.30
64175;BMP280;50469;50.438;-119.202;2023-07-29T11:21:05;97193.84;;;15.12
64175;BMP280;50469;50.438;-119.202;2023-07-29T11:23:35;97202.69;;;15.13
64175;BMP280;50469;50.438;-119.202;2023-07-29T11:26:04;97195.28;;;15.17
64175;BMP280;50469;50.438;-119.202;2023-07-29T11:28:38;97197.00;;;15.11
64175;BMP280;50469;50.438;-119.202;2023-07-29T11:31:06;97194.28;;;15.11
64175;BMP280;50469;50.438;-119.202;2023-07-29T11:33:38;97199.00;;;15.06
64175;BMP280;50469;50.438;-119.202;2023-07-29T11:36:06;97201.38;;;15.04
64175;BMP280;50469;50.438;-119.202;2023-07-29T11:38:34;97196.38;;;14.90
64175;BMP280;50469;50.438;-119.202;2023-07-29T11:41:02;97205.88;;;14.82
64175;BMP280;50469;50.438;-119.202;2023-07-29T11:43:37;97207.31;;;14.99
64175;BMP280;50469;50.438;-119.202;2023-07-29T11:46:07;97217.13;;;15.06
64175;BMP280;50469;50.438;-119.202;2023-07-29T11:48:35;97217.94;;;14.77
64175;BMP280;50469;50.438;-119.202;2023-07-29T11:51:03;97217.13;;;14.93
64175;BMP280;50469;50.438;-119.202;2023-07-29T11:53:34;97217.94;;;14.90
64175;BMP280;50469;50.438;-119.202;2023-07-29T11:56:03;97213.34;;;15.03
64175;BMP280;50469;50.438;-119.202;2023-07-29T11:58:32;97215.72;;;15.01
64175;BMP280;50469;50.438;-119.202;2023-07-29T12:01:00;97205.44;;;14.96
64175;BMP280;50469;50.438;-119.202;2023-07-29T12:03:31;97212.72;;;15.12
64175;BMP280;50469;50.438;-119.202;2023-07-29T12:06:00;97217.88;;;15.06
64175;BMP280;50469;50.438;-119.202;2023-07-29T12:08:28;97216.88;;;14.88
64175;BMP280;50469;50.438;-119.202;2023-07-29T12:10:56;97219.44;;;14.78
64175;BMP280;50469;50.438;-119.202;2023-07-29T12:13:24;97218.94;;;14.83
64175;BMP280;50469;50.438;-119.202;2023-07-29T12:16:01;97224.75;;;14.82
64175;BMP280;50469;50.438;-119.202;2023-07-29T12:18:30;97229.25;;;14.85
64175;BMP280;50469;50.438;-119.202;2023-07-29T12:20:59;97243.63;;;14.95
64175;BMP280;50469;50.438;-119.202;2023-07-29T12:23:29;97240.97;;;14.66
64175;BMP280;50469;50.438;-119.202;2023-07-29T12:25:59;97240.50;;;14.38
64175;BMP280;50469;50.438;-119.202;2023-07-29T12:28:27;97246.19;;;14.56
64175;BMP280;50469;50.438;-119.202;2023-07-29T12:30:56;97247.09;;;14.66
64175;BMP280;50469;50.438;-119.202;2023-07-29T12:33:37;97252.06;;;14.68
64175;BMP280;50469;50.438;-119.202;2023-07-29T12:36:05;97244.97;;;14.74
64175;BMP280;50469;50.438;-119.202;2023-07-29T12:38:36;97249.13;;;14.62
64175;BMP280;50469;50.438;-119.202;2023-07-29T12:41:04;97250.53;;;14.67
64175;BMP280;50469;50.438;-119.202;2023-07-29T12:43:32;97245.84;;;14.71
64175;BMP280;50469;50.438;-119.202;2023-07-29T12:46:00;97255.44;;;14.55
64175;BMP280;50469;50.438;-119.202;2023-07-29T12:48:28;97250.06;;;14.55
64175;BMP280;50469;50.438;-119.202;2023-07-29T12:50:56;97255.66;;;14.32
64175;BMP280;50469;50.438;-119.202;2023-07-29T12:53:24;97266.16;;;13.77
64175;BMP280;50469;50.438;-119.202;2023-07-29T12:55:55;97266.72;;;14.21
64175;BMP280;50469;50.438;-119.202;2023-07-29T12:58:25;97271.81;;;14.32
64175;BMP280;50469;50.438;-119.202;2023-07-29T13:00:53;97268.38;;;14.31
64175;BMP280;50469;50.438;-119.202;2023-07-29T13:03:21;97256.31;;;14.52
64175;BMP280;50469;50.438;-119.202;2023-07-29T13:05:50;97271.97;;;14.57
64175;BMP280;50469;50.438;-119.202;2023-07-29T13:08:19;97260.78;;;14.43
64175;BMP280;50469;50.438;-119.202;2023-07-29T13:10:52;97273.50;;;14.58
64175;BMP280;50469;50.438;-119.202;2023-07-29T13:13:20;97276.94;;;14.88
64175;BMP280;50469;50.438;-119.202;2023-07-29T13:15:48;97277.94;;;14.94
64175;BMP280;50469;50.438;-119.202;2023-07-29T13:18:19;97288.66;;;16.95
64175;BMP280;50469;50.438;-119.202;2023-07-29T13:20:47;97300.75;;;17.66
64175;BMP280;50469;50.438;-119.202;2023-07-29T13:23:15;97288.72;;;18.25
64175;BMP280;50469;50.438;-119.202;2023-07-29T13:25:44;97296.09;;;18.98
64175;BMP280;50469;50.438;-119.202;2023-07-29T13:28:13;97300.03;;;18.88
64175;BMP280;50469;50.438;-119.202;2023-07-29T13:30:41;97298.06;;;18.98
64175;BMP280;50469;50.438;-119.202;2023-07-29T13:33:10;97299.81;;;19.10
64175;BMP280;50469;50.438;-119.202;2023-07-29T13:35:40;97298.50;;;19.48
64175;BMP280;50469;50.438;-119.202;2023-07-29T13:38:08;97302.56;;;19.77
64175;BMP280;50469;50.438;-119.202;2023-07-29T13:40:36;97306.78;;;20.11
64175;BMP280;50469;50.438;-119.202;2023-07-29T13:43:07;97307.63;;;20.56
64175;BMP280;50469;50.438;-119.202;2023-07-29T13:45:38;97314.09;;;21.67
64175;BMP280;50469;50.438;-119.202;2023-07-29T13:48:06;97316.00;;;21.11
64175;BMP280;50469;50.438;-119.202;2023-07-29T13:50:35;97317.53;;;20.83
64175;BMP280;50469;50.438;-119.202;2023-07-29T13:53:06;97315.06;;;21.29
64175;BMP280;50469;50.438;-119.202;2023-07-29T13:55:34;97318.16;;;22.85
64175;BMP280;50469;50.438;-119.202;2023-07-29T13:58:05;97323.28;;;22.72
64175;BMP280;50469;50.438;-119.202;2023-07-29T14:00:33;97307.03;;;22.63
64175;BMP280;50469;50.438;-119.202;2023-07-29T14:03:04;97296.81;;;19.84